Terminal Aerodrome Forecast
Issued by NWS Mt. Holly, NJ

Home | Current Version | Previous Version | Text Only | Print | Product List | Glossary On
Versions: 1 2 3 4 5 6 7 8 9 10 11 12 13 14 15 16 17 18 19
000
FTUS41 KPHI 291122
TAFILG
TAF
KILG 291122Z 2912/3012 00000KT P6SM SCT250
      TEMPO 2912/2914 6SM HZ
     FM291800 22009KT P6SM SCT060
     FM292200 19009KT P6SM FEW250
     FM300800 18005KT 5SM BR BKN060=

USA.gov is the U.S. government's official web portal to all federal, state and local government web resources and services.